Latest Weather Observations for Gold Coast Seaway

IDQ60901

Issued at 11:01 pm EST Tuesday 7 July 2015 (issued every 10 minutes, with the page automatically refreshed every 10 minutes)

About weather observations | Map of Brisbane area stations | Latest observations for Brisbane area | Other Formats
Station Details ID: 040764 Name: GOLD COAST SEAWAY Lat: -27.94 Lon: 153.43 Height: 2.98 m
Data from the previous 72 hours. | See also: Recent months at Gold Coast Seaway
Date/Time
EST
Tmp

°C
App
Tmp
°C
Dew
Point
°C
Rel
Hum
%
Delta-T

°C
Wind Press
QNH
hPa
Press
MSL
hPa
Rain
since
9 am
mm
Dir
 
Spd
km/h
Gust
km/h
Spd
kts
Gust
kts
07/11:00pm 13.7 11.0 7.5 66 3.0 SW 11 15 6 8 1020.9 1020.9 0.0
07/10:30pm 13.4 10.5 6.7 64 3.2 SW 11 17 6 9 1020.9 1020.9 0.0
07/10:00pm 13.6 10.7 6.5 62 3.4 SW 11 15 6 8 1020.9 1020.9 0.0
07/09:30pm 13.6 10.6 6.0 60 3.6 SW 11 15 6 8 1020.8 1020.8 0.0
07/09:00pm 13.5 10.7 5.2 57 3.9 SW 9 13 5 7 1020.7 1020.7 0.0
07/08:30pm 13.9 11.2 5.8 58 3.8 SSW 9 11 5 6 1020.6 1020.6 0.0
07/08:00pm 14.4 10.1 5.2 54 4.3 S 17 22 9 12 1020.4 1020.4 0.0
07/07:30pm 14.9 10.1 4.9 51 4.7 S 19 28 10 15 1020.2 1020.2 0.0
07/07:00pm 15.7 9.3 5.0 49 5.0 S 28 33 15 18 1019.9 1019.9 0.0
07/06:30pm 16.2 9.1 6.6 53 4.7 S 33 43 18 23 1019.5 1019.5 0.0
07/06:00pm 16.6 9.3 7.3 54 4.6 SSE 35 41 19 22 1019.0 1019.0 0.0
07/05:30pm 17.1 9.9 6.0 48 5.4 SSE 33 41 18 22 1018.4 1018.4 0.0
07/05:00pm 17.6 10.6 6.2 47 5.6 SE 32 37 17 20 1018.0 1018.0 0.0
07/04:30pm 18.4 11.3 5.3 42 6.4 SE 32 41 17 22 1017.5 1017.5 0.0
07/04:00pm 19.2 12.1 5.6 41 6.7 SE 32 35 17 19 1017.2 1017.2 0.0
07/03:30pm 19.5 12.4 6.6 43 6.5 SE 33 39 18 21 1016.8 1016.8 0.0
07/03:00pm 20.0 13.1 6.4 41 6.8 SE 32 35 17 19 1016.7 1016.7 0.0
07/02:30pm 20.0 12.9 5.6 39 7.1 SE 32 35 17 19 1016.6 1016.6 0.0
07/02:00pm 20.6 13.6 5.8 38 7.3 SE 32 35 17 19 1016.5 1016.5 0.0
07/01:30pm 20.8 14.7 6.4 39 7.3 SE 28 35 15 19 1016.4 1016.4 0.0
07/01:00pm 20.9 13.9 2.2 29 8.7 SSE 28 33 15 18 1016.4 1016.4 0.0
07/12:30pm 21.5 15.2 3.7 31 8.6 SSE 26 32 14 17 1016.6 1016.6 0.0
07/12:00pm 21.1 14.3 2.9 30 8.6 SSE 28 32 15 17 1017.0 1017.0 0.0
07/11:30am 21.0 14.4 1.8 28 8.9 SSE 26 32 14 17 1017.4 1017.4 0.0
07/11:00am 21.1 15.0 0.3 25 9.3 SSE 22 30 12 16 1017.6 1017.6 0.0
07/10:30am 21.1 16.0 2.9 30 8.6 SSE 19 26 10 14 1017.7 1017.7 0.0
07/10:00am 20.3 16.0 5.1 37 7.4 SSE 17 24 9 13 1017.9 1017.9 0.0
07/09:00am 17.8 13.7 2.5 36 7.0 W 13 15 7 8 1017.6 1017.6 0.0
07/08:30am 16.3 11.8 4.4 45 5.6 W 17 19 9 10 1017.3 1017.3 0.0
07/08:00am 15.0 10.8 5.5 53 4.5 WNW 17 19 9 10 1017.1 1017.1 0.0
07/07:30am 14.2 11.1 5.6 56 4.1 NNW 11 13 6 7 1016.9 1016.9 0.0
07/07:00am 13.3 10.6 5.7 60 3.6 WNW 9 15 5 8 1016.6 1016.6 0.0
07/06:30am 14.2 10.2 6.8 61 3.6 NW 17 20 9 11 1016.4 1016.4 0.0
07/06:00am 14.7 10.4 6.8 59 3.8 NW 19 26 10 14 1016.2 1016.2 0.0
07/05:30am 14.1 10.4 8.1 67 3.0 NW 17 22 9 12 1016.0 1016.0 0.0
07/05:00am 14.1 10.9 8.5 69 2.8 WNW 15 17 8 9 1015.7 1015.7 0.0
07/04:30am 12.2 10.3 8.9 80 1.6 W 9 11 5 6 1015.6 1015.6 0.0
07/04:00am 13.3 11.6 9.7 79 1.8 W 9 11 5 6 1015.8 1015.8 0.0
07/03:30am 12.6 10.8 9.6 82 1.5 WSW 9 15 5 8 1015.9 1015.9 0.0
07/03:00am 12.5 11.2 10.0 85 1.3 W 7 11 4 6 1015.8 1015.8 0.0
07/02:30am 13.4 11.3 11.3 87 1.1 WNW 13 15 7 8 1016.0 1016.0 0.0
07/02:00am 14.2 12.8 12.1 87 1.1 NW 11 13 6 7 1016.1 1016.1 0.0
07/01:30am 14.5 13.0 12.0 85 1.4 WNW 11 13 6 7 1016.2 1016.2 0.0
07/01:00am 14.5 13.4 11.8 84 1.5 W 9 11 5 6 1016.2 1016.2 0.0
07/12:30am 15.1 13.3 12.2 83 1.6 WNW 13 13 7 7 1016.2 1016.2 0.0
07/12:00am 15.2 14.2 12.3 83 1.6 W 9 11 5 6 1016.3 1016.3 0.0
 
Date/Time
EST
Tmp

°C
App
Tmp
°C
Dew
Point
°C
Rel
Hum
%
Delta-T

°C
Wind Press
QNH
hPa
Press
MSL
hPa
Rain
since
9 am
mm
Dir
 
Spd
km/h
Gust
km/h
Spd
kts
Gust
kts
06/11:30pm 14.8 13.3 11.8 82 1.6 WNW 11 11 6 6 1016.3 1016.3 0.0
06/11:00pm 14.5 13.6 11.5 82 1.6 W 7 9 4 5 1016.5 1016.5 0.0
06/10:30pm 14.9 13.9 11.1 78 2.0 SSW 7 9 4 5 1016.7 1016.7 0.0
06/10:00pm 16.2 14.9 12.4 78 2.1 SW 11 13 6 7 1016.5 1016.5 0.0
06/09:30pm 17.5 15.5 13.8 79 2.1 NW 17 19 9 10 1016.2 1016.2 0.0
06/09:00pm 17.7 15.6 13.6 77 2.3 NW 17 19 9 10 1016.2 1016.2 0.0
06/08:30pm 17.6 15.0 13.3 76 2.4 NW 19 24 10 13 1016.1 1016.1 0.0
06/08:00pm 17.7 15.5 13.2 75 2.5 NW 17 20 9 11 1016.1 1016.1 0.0
06/07:30pm 17.3 15.7 12.8 75 2.5 NW 13 17 7 9 1016.0 1016.0 0.0
06/07:00pm 17.3 15.8 13.0 76 2.4 NW 13 17 7 9 1015.8 1015.8 0.0
06/06:30pm 17.6 15.9 12.3 71 2.9 NNW 13 15 7 8 1015.6 1015.6 0.0
06/06:00pm 18.0 15.7 11.8 67 3.4 NNW 15 19 8 10 1015.3 1015.3 0.0
06/05:30pm 18.3 15.4 11.1 63 3.9 NNW 17 24 9 13 1014.9 1014.9 0.0
06/05:00pm 19.0 15.9 10.3 57 4.7 N 17 22 9 12 1014.8 1014.8 0.0
06/04:30pm 20.4 16.7 11.6 57 4.9 N 22 26 12 14 1014.8 1014.8 0.0
06/04:00pm 22.1 19.1 9.3 44 6.9 NNW 15 19 8 10 1014.7 1014.7 0.0
06/03:30pm 22.3 18.7 8.4 41 7.3 NNW 17 22 9 12 1014.8 1014.8 0.0
06/03:00pm 22.7 17.9 8.8 41 7.4 NW 24 30 13 16 1015.0 1015.0 0.0
06/02:30pm 22.6 17.4 8.7 41 7.4 NW 26 37 14 20 1015.2 1015.2 0.0
06/02:00pm 22.4 18.2 9.9 45 6.8 NNW 22 32 12 17 1015.4 1015.4 0.0
06/01:30pm 21.9 17.7 9.8 46 6.5 NNW 22 37 12 20 1015.6 1015.6 0.0
06/01:00pm 21.6 18.1 10.1 48 6.2 NNW 19 26 10 14 1016.0 1016.0 0.0
06/12:30pm 21.4 17.4 9.0 45 6.6 NW 20 30 11 16 1016.7 1016.7 0.0
06/12:00pm 21.1 16.1 9.7 48 6.1 NW 26 33 14 18 1017.2 1017.2 0.0
06/11:30am 21.0 17.1 9.6 48 6.1 NW 20 28 11 15 1017.7 1017.7 0.0
06/11:00am 21.0 17.6 10.5 51 5.7 NW 19 28 10 15 1018.1 1018.1 0.0
06/10:30am 19.9 16.3 9.8 52 5.4 NW 19 24 10 13 1018.6 1018.6 0.0
06/10:00am 19.2 15.6 9.9 55 4.9 NW 19 24 10 13 1018.8 1018.8 0.0
06/09:30am 18.0 15.3 11.6 66 3.5 NW 17 20 9 11 1019.2 1019.2 0.0
06/09:00am 16.4 14.2 10.9 70 2.9 NW 13 17 7 9 1019.3 1019.3 0.0
06/08:30am 15.2 12.7 11.0 76 2.2 NW 15 19 8 10 1019.3 1019.3 0.0
06/08:00am 14.2 11.6 10.8 80 1.8 NW 15 17 8 9 1019.3 1019.3 0.0
06/07:30am 13.7 11.6 11.0 84 1.4 NW 13 17 7 9 1019.2 1019.2 0.0
06/07:00am 12.9 10.5 11.5 91 0.7 NW 15 17 8 9 1019.1 1019.1 0.0
06/06:30am 12.8 10.6 12.0 95 0.4 NW 15 17 8 9 1019.0 1019.0 0.0
06/06:00am 13.0 11.4 12.8 99 0.1 NW 13 17 7 9 1018.9 1018.9 0.0
06/05:30am 12.4 10.2 12.2 99 0.1 NW 15 19 8 10 1018.9 1018.9 0.0
06/05:00am 12.9 11.3 12.7 99 0.1 WNW 13 13 7 7 1018.8 1018.8 0.0
06/04:30am 12.7 11.0 12.5 99 0.1 WNW 13 13 7 7 1018.8 1018.8 0.0
06/04:00am 12.3 10.9 12.1 99 0.1 WNW 11 13 6 7 1018.8 1018.8 0.0
06/03:30am 12.6 11.3 12.4 99 0.1 W 11 11 6 6 1019.0 1019.0 0.0
06/03:00am 12.8 11.9 12.6 99 0.1 W 9 11 5 6 1019.1 1019.1 0.0
06/02:30am 12.6 11.9 12.1 97 0.3 WNW 7 9 4 5 1019.2 1019.2 0.0
06/02:00am 12.5 11.6 11.2 92 0.7 WNW 7 9 4 5 1019.6 1019.6 0.0
06/01:30am 13.0 11.8 11.6 91 0.7 W 9 11 5 6 1020.0 1020.0 0.0
06/01:00am 12.7 11.5 10.2 85 1.3 W 7 7 4 4 1020.2 1020.2 0.0
06/12:30am 13.8 12.5 11.1 84 1.4 W 9 11 5 6 1020.4 1020.4 0.0
06/12:00am 14.1 12.7 10.9 81 1.7 W 9 11 5 6 1020.5 1020.5 0.0
 
Date/Time
EST
Tmp

°C
App
Tmp
°C
Dew
Point
°C
Rel
Hum
%
Delta-T

°C
Wind Press
QNH
hPa
Press
MSL
hPa
Rain
since
9 am
mm
Dir
 
Spd
km/h
Gust
km/h
Spd
kts
Gust
kts
05/11:30pm 15.1 14.2 11.3 78 2.0 W 7 9 4 5 1020.4 1020.4 0.0
05/11:00pm 15.5 14.3 11.7 78 2.0 W 9 11 5 6 1020.6 1020.6 0.0
05/10:30pm 15.1 13.8 11.3 78 2.0 WSW 9 13 5 7 1020.9 1020.9 0.0
05/10:00pm 15.4 14.1 11.4 77 2.1 WSW 9 13 5 7 1020.8 1020.8 0.0
05/09:30pm 15.6 14.0 11.4 76 2.3 WNW 11 15 6 8 1020.6 1020.6 0.0
05/09:00pm 15.9 14.0 11.9 77 2.2 W 13 17 7 9 1020.6 1020.6 0.0
05/08:30pm 16.1 14.4 12.3 78 2.1 W 13 17 7 9 1020.4 1020.4 0.0
05/08:00pm 16.2 14.4 12.2 77 2.2 WNW 13 17 7 9 1020.2 1020.2 0.0
05/07:30pm 16.5 15.1 12.1 75 2.4 NW 11 15 6 8 1020.1 1020.1 0.0
05/07:00pm 17.0 15.2 12.1 73 2.7 NW 13 15 7 8 1020.1 1020.1 0.0
05/06:30pm 17.0 14.5 9.7 62 3.8 NNW 13 15 7 8 1019.8 1019.8 0.0
05/06:00pm 17.3 14.2 10.2 63 3.8 NNW 17 20 9 11 1019.7 1019.7 0.0
05/05:30pm 17.9 15.8 11.2 65 3.6 N 13 17 7 9 1019.7 1019.7 0.0
05/05:00pm 18.4 16.1 10.3 59 4.3 NNW 13 19 7 10 1019.5 1019.5 0.0
05/04:30pm 20.0 17.0 10.7 55 5.1 N 17 20 9 11 1019.4 1019.4 0.0
05/04:00pm 21.5 18.1 7.7 41 7.1 NW 15 19 8 10 1019.3 1019.3 0.0
05/03:30pm 21.7 17.0 7.9 41 7.2 NW 22 30 12 16 1019.3 1019.3 0.0
05/03:00pm 21.7 17.3 7.5 40 7.3 WNW 20 35 11 19 1019.4 1019.4 0.0
05/02:30pm 22.2 18.9 9.4 44 6.9 NW 17 28 9 15 1019.3 1019.3 0.0
05/02:00pm 22.1 18.1 8.9 43 7.0 NW 20 28 11 15 1019.4 1019.4 0.0
05/01:30pm 21.5 17.3 8.4 43 6.9 NW 20 30 11 16 1019.6 1019.6 0.0
05/01:00pm 22.2 18.0 7.6 39 7.6 WNW 19 26 10 14 1019.9 1019.9 0.0
05/12:30pm 22.0 18.5 10.2 47 6.4 NW 19 26 10 14 1020.4 1020.4 0.0
05/12:00pm 21.8 18.9 10.9 50 6.0 N 17 24 9 13 1020.9 1020.9 0.0
05/11:30am 21.0 18.9 11.3 54 5.4 NNW 13 19 7 10 1021.5 1021.5 0.0
05/11:00am 20.9 18.7 12.1 57 4.9 NNW 15 20 8 11 1022.1 1022.1 0.0
05/10:30am 20.4 19.4 15.6 74 2.9 N 15 17 8 9 1022.3 1022.3 0.0
05/10:00am 20.0 19.8 15.8 77 2.5 NNE 11 15 6 8 1022.5 1022.5 0.0
05/09:30am 18.8 18.5 14.3 75 2.6 WNW 9 11 5 6 1022.6 1022.6 0.0
05/09:00am 17.2 17.0 14.7 85 1.4 WNW 9 11 5 6 1022.5 1022.5 0.0
05/08:30am 16.0 15.4 14.5 91 0.9 W 11 13 6 7 1022.3 1022.3 0.0
05/08:00am 14.8 14.1 14.3 97 0.3 W 11 13 6 7 1022.1 1022.1 0.0
05/07:30am 13.5 12.8 13.3 99 0.1 WSW 9 11 5 6 1022.0 1022.0 0.0
05/07:00am 12.8 11.6 12.8 100 0.0 WSW 11 11 6 6 1022.0 1022.0 0.0
05/06:30am 11.3 10.4 11.3 100 0.0 WSW 7 7 4 4 1021.5 1021.5 0.0
05/06:00am 11.4 11.8 11.2 99 0.1 CALM 0 0 0 0 1021.2 1021.2 0.0
05/05:30am 11.5 11.9 11.3 99 0.1 CALM 0 2 0 1 1021.1 1021.1 0.0
05/05:00am 12.7 11.8 12.5 99 0.1 WNW 9 9 5 5 1020.8 1020.8 0.0
05/04:30am 13.2 12.1 13.0 99 0.1 WNW 11 13 6 7 1020.7 1020.7 0.0
05/04:00am 12.7 12.1 12.4 98 0.2 W 7 9 4 5 1020.7 1020.7 0.0
05/03:30am 13.1 12.3 12.9 99 0.1 W 9 9 5 5 1020.8 1020.8 0.0
05/03:00am 13.5 12.2 12.6 94 0.5 WNW 11 11 6 6 1021.0 1021.0 0.0
05/02:30am 13.8 12.8 12.2 90 0.9 W 9 11 5 6 1021.1 1021.1 0.0
05/02:00am 14.4 13.9 12.8 90 0.9 WSW 7 9 4 5 1021.3 1021.3 0.0
05/01:30am 14.8 14.5 13.2 90 0.9 WSW 7 9 4 5 1021.6 1021.6 0.0
05/01:00am 14.7 14.3 13.1 90 0.9 WSW 7 9 4 5 1021.8 1021.8 0.0
05/12:30am 14.6 13.8 13.0 90 0.9 W 9 11 5 6 1022.0 1022.0 0.0
05/12:00am 14.4 13.3 13.0 91 0.8 W 11 13 6 7 1022.1 1022.1 0.0
 
Date/Time
EST
Tmp

°C
App
Tmp
°C
Dew
Point
°C
Rel
Hum
%
Delta-T

°C
Wind Press
QNH
hPa
Press
MSL
hPa
Rain
since
9 am
mm
Dir
 
Spd
km/h
Gust
km/h
Spd
kts
Gust
kts
04/11:30pm 14.7 13.7 13.4 92 0.7 WNW 11 13 6 7 1022.1 1022.1 0.0

Latest Capital City Observations: Canberra | Sydney | Melbourne | Brisbane | Adelaide | Perth | Hobart | Darwin

Other Formats:

Comma delimited format used in spreadsheet applications
http://www.bom.gov.au/fwo/IDQ60901/IDQ60901.94580.axf

JavaScript Object Notation format (JSON) in row-major order
http://www.bom.gov.au/fwo/IDQ60901/IDQ60901.94580.json